Barcelos Airport


Codes: SWBC/BAZ
Name: Barcelos Airport
City: Barcelos
Country: Brazil
Elevation: 112 ft.

Photos at Barcelos Airport


   Photos courtesy of SpottingLog. You can add your own sightings and photos by signing up for a free trial today.



No photos found.

Weather at Barcelos Airport


Time (UTC)DescriptionTempratureWindCloud coverageVisibilityPressureHumidity
16-Jun-2024 12:00Light Rain23°C4 mph, NE100%10000m1012hPa93%
16-Jun-2024 15:00Light Rain27°C4 mph, NE83%10000m1013hPa74%
16-Jun-2024 18:00Broken Clouds31°C4 mph, E81%10000m1010hPa58%
16-Jun-2024 21:00Light Rain26°C4 mph, N100%10000m1010hPa87%
17-Jun-2024 00:00Broken Clouds24°C2 mph, N79%10000m1011hPa90%
17-Jun-2024 03:00Light Rain24°C2 mph, N74%10000m1012hPa93%
17-Jun-2024 06:00Light Rain23°C2 mph, NE79%10000m1011hPa97%
17-Jun-2024 09:00Light Rain23°C2 mph, N39%10000m1010hPa96%
17-Jun-2024 12:00Scattered Clouds25°C2 mph, NE25%10000m1012hPa84%
17-Jun-2024 15:00Clear Sky30°C2 mph, NE5%10000m1011hPa63%
17-Jun-2024 18:00Clear Sky32°C2 mph, SE7%10000m1008hPa52%
17-Jun-2024 21:00Overcast Clouds28°C2 mph, N90%10000m1007hPa74%
18-Jun-2024 00:00Broken Clouds26°C2 mph, NE83%10000m1009hPa74%
18-Jun-2024 03:00Light Rain24°C2 mph, N26%10000m1010hPa92%
18-Jun-2024 06:00Scattered Clouds24°C2 mph, E33%10000m1009hPa90%
18-Jun-2024 09:00Overcast Clouds24°C2 mph, E92%10000m1009hPa86%
18-Jun-2024 12:00Overcast Clouds26°C2 mph, E87%10000m1011hPa78%
18-Jun-2024 15:00Overcast Clouds31°C2 mph, NE91%10000m1010hPa57%
18-Jun-2024 18:00Light Rain32°C2 mph, E81%10000m1007hPa52%
18-Jun-2024 21:00Scattered Clouds29°C2 mph, E49%10000m1006hPa69%
19-Jun-2024 00:00Light Rain27°C2 mph, NE57%10000m1008hPa75%
19-Jun-2024 03:00Light Rain24°C2 mph, NE27%10000m1010hPa90%
19-Jun-2024 06:00Light Rain23°C2 mph, NE20%10000m1008hPa97%
19-Jun-2024 09:00Scattered Clouds23°C2 mph, NE35%10000m1009hPa96%
19-Jun-2024 12:00Scattered Clouds25°C4 mph, NE32%10000m1011hPa87%
19-Jun-2024 15:00Light Rain29°C4 mph, NE3%10000m1011hPa73%
19-Jun-2024 18:00Moderate Rain30°C2 mph, E1%10000m1008hPa66%
19-Jun-2024 21:00Light Rain28°C4 mph, NE68%10000m1007hPa74%
20-Jun-2024 00:00Light Rain24°C2 mph, NE84%10000m1008hPa94%
20-Jun-2024 03:00Light Rain24°C2 mph, N99%10000m1010hPa96%
20-Jun-2024 06:00Light Rain23°C0 mph, S100%10000m1009hPa97%
20-Jun-2024 09:00Overcast Clouds23°C2 mph, NE100%10000m1009hPa97%
20-Jun-2024 12:00Overcast Clouds25°C2 mph, NE100%10000m1011hPa89%
20-Jun-2024 15:00Light Rain28°C2 mph, E76%10000m1011hPa72%
20-Jun-2024 18:00Overcast Clouds30°C4 mph, NE86%10000m1009hPa65%
20-Jun-2024 21:00Light Rain27°C2 mph, NE27%10000m1008hPa89%
21-Jun-2024 00:00Scattered Clouds24°C2 mph, NW31%10000m1009hPa95%
21-Jun-2024 03:00Light Rain23°C2 mph, NE14%10000m1011hPa98%
21-Jun-2024 06:00Light Rain23°C2 mph, N36%10000m1010hPa99%
21-Jun-2024 09:00Light Rain23°C2 mph, N72%10000m1010hPa99%